West Fenwick, Delaware
Current Conditions -  °F | °C
As of 2:53 AM on Saturday 20 Dec 2014 (Local Time) from KOXB Reporting Station
Clear Clear  
Wind Chill: 25°   Ceiling: Unl
Heat Index: 25°   Visibility: 10mi
Dew Point: 22°   Wind: 3mph
Humidity: 88%   Direction: 280°W
Pressure: 30.24"   Gusts: NA
Location:  38.4673°N, 75.1926°W
Report Text: KOXB 200753Z AUTO 28003KT 10SM CLR M04/M06 A3024 RMK AO2 SLP241 T10391056 TSNO
Loading
Personal Weather Stations






























Interactive Weather Map New forecast layout! Learn more

10-Day Weather Forecast

Advertisements
Track Severe Weather on mobile